DAL2087 KLGA-KATL
Flight info
| Callsign | DAL2087 |
|---|---|
| Flight time | 1h 46m |
| Altitude | 38000 |
| Route | LANNA J48 MOL FLASK OZZZI2 |
| Aircraft | A20N/M-SDE2E3FGHIRWXY/LB1 |
Departure
| Time | 2026-05-04 22:28 |
|---|---|
| Airport | LaGuardia Airport (KLGA) |
Arrival
| Time | 2026-05-05 00:14 |
|---|---|
| Airport | Hartsfield Jackson Atlanta International Airport (KATL) |
| Time | Latitude | Longitude | Altitude | Speed | Heading |
|---|---|---|---|---|---|
| 2026-05-04 21:43 | 40.77212 | -73.86473 | 16 ft | 0 kts | 313° |
| 2026-05-04 21:48 | 40.77210 | -73.86470 | 16 ft | 1 kts | 313° |
| 2026-05-04 21:49 | 40.77204 | -73.86463 | 17 ft | 1 kts | 313° |
| 2026-05-04 21:49 | 40.77201 | -73.86458 | 17 ft | 1 kts | 313° |
| 2026-05-04 21:49 | 40.77196 | -73.86450 | 15 ft | 1 kts | 313° |
| 2026-05-04 21:49 | 40.77190 | -73.86442 | 15 ft | 1 kts | 313° |
| 2026-05-04 21:50 | 40.77185 | -73.86435 | 17 ft | 1 kts | 324° |
| 2026-05-04 21:50 | 40.77179 | -73.86429 | 17 ft | 1 kts | 339° |
| 2026-05-04 21:50 | 40.77171 | -73.86426 | 17 ft | 1 kts | 355° |
| 2026-05-04 21:50 | 40.77168 | -73.86425 | 17 ft | 0 kts | 1° |
| 2026-05-04 22:04 | 40.77162 | -73.86425 | 16 ft | 1 kts | 12° |
| 2026-05-04 22:04 | 40.77157 | -73.86427 | 17 ft | 0 kts | 23° |
| 2026-05-04 22:21 | 40.77158 | -73.86427 | 19 ft | 3 kts | 20° |
| 2026-05-04 22:21 | 40.77169 | -73.86426 | 16 ft | 3 kts | 1° |
| 2026-05-04 22:22 | 40.77207 | -73.86402 | 14 ft | 3 kts | 43° |
| 2026-05-04 22:22 | 40.77253 | -73.86330 | 13 ft | 17 kts | 50° |
| 2026-05-04 22:22 | 40.77304 | -73.86274 | 13 ft | 13 kts | 32° |
| 2026-05-04 22:22 | 40.77386 | -73.86322 | 13 ft | 15 kts | 304° |
| 2026-05-04 22:23 | 40.77457 | -73.86468 | 12 ft | 23 kts | 302° |
| 2026-05-04 22:23 | 40.77558 | -73.86682 | 10 ft | 31 kts | 303° |
| 2026-05-04 22:23 | 40.77677 | -73.86933 | 12 ft | 33 kts | 301° |
| 2026-05-04 22:23 | 40.77772 | -73.87131 | 17 ft | 23 kts | 302° |
| 2026-05-04 22:24 | 40.77864 | -73.87320 | 19 ft | 21 kts | 301° |
| 2026-05-04 22:24 | 40.77915 | -73.87428 | 17 ft | 11 kts | 302° |
| 2026-05-04 22:24 | 40.77921 | -73.87440 | 18 ft | 0 kts | 302° |
| 2026-05-04 22:25 | 40.77924 | -73.87447 | 18 ft | 3 kts | 302° |
| 2026-05-04 22:26 | 40.77946 | -73.87494 | 15 ft | 9 kts | 302° |
| 2026-05-04 22:26 | 40.77991 | -73.87588 | 15 ft | 15 kts | 302° |
| 2026-05-04 22:26 | 40.78057 | -73.87725 | 16 ft | 20 kts | 302° |
| 2026-05-04 22:26 | 40.78118 | -73.87839 | 16 ft | 11 kts | 321° |
| 2026-05-04 22:27 | 40.78195 | -73.87849 | 15 ft | 13 kts | 31° |
| 2026-05-04 22:27 | 40.78180 | -73.87742 | 11 ft | 14 kts | 125° |
| 2026-05-04 22:27 | 40.78011 | -73.87390 | 13 ft | 88 kts | 121° |
| 2026-05-04 22:27 | 40.77556 | -73.86450 | 181 ft | 139 kts | 126° |
| 2026-05-04 22:28 | 40.77004 | -73.85313 | 717 ft | 164 kts | 125° |
| 2026-05-04 22:28 | 40.76274 | -73.83904 | 1010 ft | 201 kts | 133° |
| 2026-05-04 22:28 | 40.75143 | -73.82922 | 1872 ft | 199 kts | 169° |
| 2026-05-04 22:28 | 40.73680 | -73.82708 | 2441 ft | 219 kts | 180° |
| 2026-05-04 22:29 | 40.72163 | -73.82725 | 3441 ft | 221 kts | 194° |
| 2026-05-04 22:29 | 40.70658 | -73.83515 | 3699 ft | 246 kts | 219° |
| 2026-05-04 22:29 | 40.69481 | -73.85154 | 3851 ft | 248 kts | 232° |
| 2026-05-04 22:29 | 40.68398 | -73.86922 | 3970 ft | 248 kts | 237° |
| 2026-05-04 22:30 | 40.67770 | -73.89000 | 4083 ft | 245 kts | 261° |
| 2026-05-04 22:30 | 40.67878 | -73.91256 | 4174 ft | 250 kts | 285° |
| 2026-05-04 22:30 | 40.68667 | -73.93320 | 4304 ft | 256 kts | 298° |
| 2026-05-04 22:30 | 40.69601 | -73.95348 | 4762 ft | 259 kts | 300° |
| 2026-05-04 22:31 | 40.70728 | -73.97199 | 5895 ft | 258 kts | 311° |
| 2026-05-04 22:31 | 40.72104 | -73.98743 | 6973 ft | 262 kts | 319° |
| 2026-05-04 22:31 | 40.73557 | -74.00172 | 7972 ft | 264 kts | 319° |
| 2026-05-04 22:31 | 40.75029 | -74.01641 | 8981 ft | 267 kts | 319° |
| 2026-05-04 22:32 | 40.76518 | -74.03131 | 10002 ft | 269 kts | 319° |
| 2026-05-04 22:32 | 40.78052 | -74.04667 | 10615 ft | 287 kts | 319° |
| 2026-05-04 22:32 | 40.79707 | -74.06329 | 10951 ft | 310 kts | 319° |
| 2026-05-04 22:32 | 40.81472 | -74.08095 | 11402 ft | 324 kts | 320° |
| 2026-05-04 22:33 | 40.83268 | -74.09884 | 11511 ft | 323 kts | 320° |
| 2026-05-04 22:33 | 40.84945 | -74.11823 | 11610 ft | 319 kts | 306° |
| 2026-05-04 22:33 | 40.85963 | -74.14393 | 11714 ft | 316 kts | 284° |
| 2026-05-04 22:33 | 40.86166 | -74.16292 | 11783 ft | 316 kts | 270° |
| 2026-05-04 22:34 | 40.85808 | -74.19161 | 11892 ft | 319 kts | 258° |
| 2026-05-04 22:34 | 40.85264 | -74.21998 | 11990 ft | 318 kts | 257° |
| 2026-05-04 22:34 | 40.84720 | -74.24841 | 12092 ft | 319 kts | 257° |
| 2026-05-04 22:34 | 40.84176 | -74.27691 | 12204 ft | 320 kts | 257° |
| 2026-05-04 22:35 | 40.83582 | -74.30509 | 12289 ft | 322 kts | 250° |
| 2026-05-04 22:35 | 40.82594 | -74.33209 | 12738 ft | 327 kts | 246° |
| 2026-05-04 22:35 | 40.81563 | -74.35923 | 13744 ft | 327 kts | 246° |
| 2026-05-04 22:35 | 40.80552 | -74.38578 | 14555 ft | 329 kts | 246° |
| 2026-05-04 22:36 | 40.79519 | -74.41297 | 15303 ft | 333 kts | 246° |
| 2026-05-04 22:36 | 40.78475 | -74.44044 | 16028 ft | 337 kts | 246° |
| 2026-05-04 22:36 | 40.77419 | -74.46826 | 16768 ft | 341 kts | 246° |
| 2026-05-04 22:36 | 40.76351 | -74.49635 | 17502 ft | 345 kts | 246° |
| 2026-05-04 22:37 | 40.75268 | -74.52485 | 18198 ft | 349 kts | 246° |
| 2026-05-04 22:37 | 40.74171 | -74.55366 | 18813 ft | 353 kts | 246° |
| 2026-05-04 22:37 | 40.73065 | -74.58267 | 19417 ft | 357 kts | 247° |
| 2026-05-04 22:37 | 40.71942 | -74.61210 | 19988 ft | 361 kts | 247° |
| 2026-05-04 22:38 | 40.70805 | -74.64188 | 20595 ft | 365 kts | 247° |
| 2026-05-04 22:38 | 40.69660 | -74.67184 | 21203 ft | 369 kts | 247° |
| 2026-05-04 22:38 | 40.68497 | -74.70222 | 21784 ft | 373 kts | 247° |
| 2026-05-04 22:38 | 40.67319 | -74.73298 | 22376 ft | 377 kts | 247° |
| 2026-05-04 22:39 | 40.66132 | -74.76393 | 22961 ft | 381 kts | 247° |
| 2026-05-04 22:39 | 40.64946 | -74.79484 | 23512 ft | 385 kts | 248° |
| 2026-05-04 22:39 | 40.63732 | -74.82642 | 24002 ft | 388 kts | 248° |
| 2026-05-04 22:39 | 40.62509 | -74.85821 | 24495 ft | 391 kts | 248° |
| 2026-05-04 22:40 | 40.61272 | -74.89031 | 24971 ft | 394 kts | 248° |
| 2026-05-04 22:40 | 40.60030 | -74.92254 | 25447 ft | 397 kts | 248° |
| 2026-05-04 22:40 | 40.58772 | -74.95515 | 25904 ft | 401 kts | 248° |
| 2026-05-04 22:40 | 40.57505 | -74.98795 | 26355 ft | 403 kts | 248° |
| 2026-05-04 22:41 | 40.56150 | -75.02045 | 26846 ft | 408 kts | 243° |
| 2026-05-04 22:41 | 40.54504 | -75.05134 | 27262 ft | 415 kts | 236° |
| 2026-05-04 22:41 | 40.52648 | -75.08070 | 27622 ft | 420 kts | 235° |
| 2026-05-04 22:41 | 40.50767 | -75.11038 | 28024 ft | 423 kts | 235° |
| 2026-05-04 22:42 | 40.48875 | -75.14032 | 28427 ft | 426 kts | 235° |
| 2026-05-04 22:42 | 40.47002 | -75.17000 | 28801 ft | 429 kts | 235° |
| 2026-05-04 22:42 | 40.45093 | -75.20024 | 29139 ft | 432 kts | 235° |
| 2026-05-04 22:42 | 40.43168 | -75.23069 | 29516 ft | 434 kts | 235° |
| 2026-05-04 22:43 | 40.41233 | -75.26127 | 29864 ft | 437 kts | 235° |
| 2026-05-04 22:43 | 40.39282 | -75.29207 | 30199 ft | 439 kts | 235° |
| 2026-05-04 22:43 | 40.37327 | -75.32290 | 30532 ft | 441 kts | 235° |
| 2026-05-04 22:43 | 40.35359 | -75.35390 | 30814 ft | 444 kts | 235° |
| 2026-05-04 22:44 | 40.33379 | -75.38507 | 31127 ft | 446 kts | 235° |
| 2026-05-04 22:44 | 40.31391 | -75.41633 | 31490 ft | 446 kts | 235° |
| 2026-05-04 22:44 | 40.29398 | -75.44764 | 31831 ft | 448 kts | 234° |
| 2026-05-04 22:44 | 40.27402 | -75.47899 | 32173 ft | 449 kts | 234° |
| 2026-05-04 22:45 | 40.25397 | -75.51042 | 32546 ft | 449 kts | 234° |
| 2026-05-04 22:45 | 40.21524 | -75.57370 | 33289 ft | 444 kts | 240° |
| 2026-05-04 22:45 | 40.19841 | -75.60737 | 33694 ft | 443 kts | 241° |
| 2026-05-04 22:46 | 40.18151 | -75.64119 | 34020 ft | 443 kts | 241° |
| 2026-05-04 22:46 | 40.16467 | -75.67478 | 34352 ft | 441 kts | 241° |
| 2026-05-04 22:46 | 40.14781 | -75.70829 | 34706 ft | 439 kts | 241° |
| 2026-05-04 22:46 | 40.13103 | -75.74162 | 35032 ft | 438 kts | 241° |
| 2026-05-04 22:47 | 40.11422 | -75.77495 | 35351 ft | 437 kts | 241° |
| 2026-05-04 22:47 | 40.09754 | -75.80800 | 35666 ft | 435 kts | 240° |
| 2026-05-04 22:47 | 40.08088 | -75.84098 | 35970 ft | 434 kts | 240° |
| 2026-05-04 22:47 | 40.06420 | -75.87393 | 36260 ft | 433 kts | 240° |
| 2026-05-04 22:48 | 40.04766 | -75.90660 | 36544 ft | 432 kts | 240° |
| 2026-05-04 22:48 | 40.03110 | -75.93924 | 36786 ft | 431 kts | 240° |
| 2026-05-04 22:48 | 40.01476 | -75.97144 | 37043 ft | 430 kts | 240° |
| 2026-05-04 22:48 | 39.99825 | -76.00394 | 37289 ft | 429 kts | 240° |
| 2026-05-04 22:49 | 39.98174 | -76.03638 | 37541 ft | 428 kts | 240° |
| 2026-05-04 22:49 | 39.96523 | -76.06881 | 37775 ft | 428 kts | 240° |
| 2026-05-04 22:49 | 39.94875 | -76.10114 | 37882 ft | 427 kts | 240° |
| 2026-05-04 22:49 | 39.93227 | -76.13342 | 37884 ft | 426 kts | 240° |
| 2026-05-04 22:50 | 39.89941 | -76.19774 | 37892 ft | 427 kts | 240° |
| 2026-05-04 22:50 | 39.86659 | -76.26182 | 37885 ft | 427 kts | 240° |
| 2026-05-04 22:51 | 39.83359 | -76.32612 | 37894 ft | 427 kts | 240° |
| 2026-05-04 22:51 | 39.80057 | -76.39035 | 37887 ft | 427 kts | 240° |
| 2026-05-04 22:52 | 39.76751 | -76.45453 | 37887 ft | 427 kts | 240° |
| 2026-05-04 22:52 | 39.73460 | -76.51825 | 37887 ft | 427 kts | 240° |
| 2026-05-04 22:53 | 39.70144 | -76.58236 | 37885 ft | 427 kts | 240° |
| 2026-05-04 22:53 | 39.66830 | -76.64636 | 37892 ft | 427 kts | 239° |
| 2026-05-04 22:54 | 39.63510 | -76.71025 | 37882 ft | 426 kts | 239° |
| 2026-05-04 22:54 | 39.60192 | -76.77400 | 37884 ft | 426 kts | 239° |
| 2026-05-04 22:55 | 39.56869 | -76.83770 | 37885 ft | 426 kts | 239° |
| 2026-05-04 22:55 | 39.53563 | -76.90095 | 37886 ft | 427 kts | 240° |
| 2026-05-04 22:56 | 39.50048 | -76.96301 | 37890 ft | 428 kts | 233° |
| 2026-05-04 22:56 | 39.45826 | -77.01754 | 37890 ft | 430 kts | 224° |
| 2026-05-04 22:57 | 39.41154 | -77.06649 | 37894 ft | 432 kts | 223° |
| 2026-05-04 22:57 | 39.36525 | -77.11514 | 37908 ft | 431 kts | 223° |
| 2026-05-04 22:58 | 39.31864 | -77.16409 | 37907 ft | 431 kts | 223° |
| 2026-05-04 22:58 | 39.27200 | -77.21297 | 37901 ft | 432 kts | 223° |
| 2026-05-04 22:59 | 39.22527 | -77.26184 | 37897 ft | 433 kts | 223° |
| 2026-05-04 22:59 | 39.17849 | -77.31067 | 37903 ft | 433 kts | 223° |
| 2026-05-04 23:00 | 39.13160 | -77.35953 | 37907 ft | 434 kts | 223° |
| 2026-05-04 23:00 | 39.08467 | -77.40837 | 37911 ft | 434 kts | 223° |
| 2026-05-04 23:01 | 39.03770 | -77.45714 | 37904 ft | 434 kts | 222° |
| 2026-05-04 23:01 | 38.99096 | -77.50558 | 37905 ft | 434 kts | 222° |
| 2026-05-04 23:02 | 38.94394 | -77.55423 | 37907 ft | 434 kts | 222° |
| 2026-05-04 23:02 | 38.89682 | -77.60289 | 37890 ft | 432 kts | 223° |
| 2026-05-04 23:03 | 38.85030 | -77.65085 | 37911 ft | 429 kts | 223° |
| 2026-05-04 23:03 | 38.80361 | -77.69894 | 37910 ft | 430 kts | 223° |
| 2026-05-04 23:04 | 38.75690 | -77.74694 | 37908 ft | 430 kts | 222° |
| 2026-05-04 23:04 | 38.71021 | -77.79483 | 37893 ft | 430 kts | 222° |
| 2026-05-04 23:05 | 38.66348 | -77.84316 | 37931 ft | 434 kts | 225° |
| 2026-05-04 23:05 | 38.62225 | -77.89772 | 37925 ft | 425 kts | 235° |
| 2026-05-04 23:06 | 38.58674 | -77.95816 | 37924 ft | 425 kts | 237° |
| 2026-05-04 23:06 | 38.55132 | -78.01862 | 37921 ft | 424 kts | 237° |
| 2026-05-04 23:07 | 38.51578 | -78.07901 | 37918 ft | 424 kts | 237° |
| 2026-05-04 23:07 | 38.48015 | -78.13942 | 37920 ft | 428 kts | 237° |
| 2026-05-04 23:08 | 38.44428 | -78.20012 | 37908 ft | 426 kts | 237° |
| 2026-05-04 23:08 | 38.40853 | -78.26050 | 37909 ft | 427 kts | 237° |
| 2026-05-04 23:09 | 38.37277 | -78.32080 | 37910 ft | 426 kts | 236° |
| 2026-05-04 23:09 | 38.33713 | -78.38079 | 37924 ft | 426 kts | 236° |
| 2026-05-04 23:10 | 38.30133 | -78.44095 | 37946 ft | 425 kts | 236° |
| 2026-05-04 23:10 | 38.26568 | -78.50073 | 37924 ft | 423 kts | 236° |
| 2026-05-04 23:11 | 38.23007 | -78.56031 | 37919 ft | 422 kts | 236° |
| 2026-05-04 23:11 | 38.19455 | -78.61967 | 37914 ft | 421 kts | 236° |
| 2026-05-04 23:12 | 38.15926 | -78.67851 | 37906 ft | 420 kts | 236° |
| 2026-05-04 23:12 | 38.12360 | -78.73791 | 37924 ft | 426 kts | 236° |
| 2026-05-04 23:13 | 38.08766 | -78.79761 | 37948 ft | 423 kts | 236° |
| 2026-05-04 23:13 | 38.05183 | -78.85703 | 37947 ft | 424 kts | 236° |
| 2026-05-04 23:14 | 38.01613 | -78.91613 | 37944 ft | 423 kts | 236° |
| 2026-05-04 23:14 | 37.98028 | -78.97539 | 37939 ft | 424 kts | 235° |
| 2026-05-04 23:15 | 37.94436 | -79.03465 | 37939 ft | 424 kts | 235° |
| 2026-05-04 23:15 | 37.90838 | -79.09387 | 37945 ft | 425 kts | 235° |
| 2026-05-04 23:16 | 37.86947 | -79.15004 | 37939 ft | 423 kts | 231° |
| 2026-05-04 23:16 | 37.82978 | -79.20534 | 37936 ft | 424 kts | 231° |
| 2026-05-04 23:17 | 37.79009 | -79.26061 | 37932 ft | 424 kts | 231° |
| 2026-05-04 23:17 | 37.75034 | -79.31581 | 37932 ft | 424 kts | 231° |
| 2026-05-04 23:18 | 37.71083 | -79.37057 | 37934 ft | 424 kts | 231° |
| 2026-05-04 23:18 | 37.67123 | -79.42534 | 37935 ft | 420 kts | 231° |
| 2026-05-04 23:19 | 37.63174 | -79.47990 | 37938 ft | 422 kts | 231° |
| 2026-05-04 23:19 | 37.59214 | -79.53449 | 37940 ft | 421 kts | 231° |
| 2026-05-04 23:20 | 37.55278 | -79.58867 | 37945 ft | 421 kts | 231° |
| 2026-05-04 23:20 | 37.51310 | -79.64321 | 37953 ft | 422 kts | 231° |
| 2026-05-04 23:21 | 37.47992 | -79.68874 | 37966 ft | 421 kts | 231° |
| 2026-05-04 23:21 | 37.44030 | -79.74300 | 37960 ft | 421 kts | 231° |
| 2026-05-04 23:22 | 37.40099 | -79.79675 | 37968 ft | 419 kts | 231° |
| 2026-05-04 23:22 | 37.36139 | -79.85080 | 37971 ft | 420 kts | 231° |
| 2026-05-04 23:23 | 37.32180 | -79.90478 | 37970 ft | 419 kts | 231° |
| 2026-05-04 23:23 | 37.28220 | -79.95867 | 37953 ft | 419 kts | 231° |
| 2026-05-04 23:24 | 37.24268 | -80.01235 | 37964 ft | 418 kts | 231° |
| 2026-05-04 23:24 | 37.20325 | -80.06583 | 37969 ft | 417 kts | 231° |
| 2026-05-04 23:25 | 37.16384 | -80.11918 | 37975 ft | 416 kts | 231° |
| 2026-05-04 23:25 | 37.12452 | -80.17233 | 37980 ft | 416 kts | 231° |
| 2026-05-04 23:26 | 37.08520 | -80.22540 | 37978 ft | 415 kts | 231° |
| 2026-05-04 23:26 | 37.04588 | -80.27835 | 37980 ft | 415 kts | 231° |
| 2026-05-04 23:27 | 37.00673 | -80.33093 | 37978 ft | 415 kts | 230° |
| 2026-05-04 23:27 | 36.96621 | -80.38278 | 37971 ft | 416 kts | 230° |
| 2026-05-04 23:28 | 36.92560 | -80.43438 | 37967 ft | 417 kts | 230° |
| 2026-05-04 23:28 | 36.88494 | -80.48625 | 37961 ft | 417 kts | 230° |
| 2026-05-04 23:29 | 36.84431 | -80.53806 | 37947 ft | 417 kts | 230° |
| 2026-05-04 23:29 | 36.80368 | -80.58981 | 37966 ft | 417 kts | 230° |
| 2026-05-04 23:30 | 36.76323 | -80.64124 | 38014 ft | 418 kts | 230° |
| 2026-05-04 23:30 | 36.72244 | -80.69302 | 38029 ft | 419 kts | 230° |
| 2026-05-04 23:31 | 36.68161 | -80.74477 | 38029 ft | 419 kts | 230° |
| 2026-05-04 23:31 | 36.64065 | -80.79660 | 38032 ft | 419 kts | 230° |
| 2026-05-04 23:32 | 36.59973 | -80.84826 | 38007 ft | 419 kts | 230° |
| 2026-05-04 23:32 | 36.55881 | -80.89990 | 37959 ft | 419 kts | 230° |
| 2026-05-04 23:33 | 36.51793 | -80.95137 | 37968 ft | 416 kts | 230° |
| 2026-05-04 23:33 | 36.47733 | -81.00244 | 37987 ft | 416 kts | 230° |
| 2026-05-04 23:34 | 36.43661 | -81.05357 | 38006 ft | 416 kts | 230° |
| 2026-05-04 23:34 | 36.39615 | -81.10428 | 38023 ft | 416 kts | 230° |
| 2026-05-04 23:35 | 36.35540 | -81.15528 | 38029 ft | 415 kts | 230° |
| 2026-05-04 23:35 | 36.31475 | -81.20607 | 38018 ft | 414 kts | 230° |
| 2026-05-04 23:36 | 36.27422 | -81.25674 | 38029 ft | 416 kts | 230° |
| 2026-05-04 23:36 | 36.23341 | -81.30768 | 38028 ft | 414 kts | 230° |
| 2026-05-04 23:37 | 36.19293 | -81.35811 | 38020 ft | 413 kts | 230° |
| 2026-05-04 23:37 | 36.15221 | -81.40878 | 37994 ft | 415 kts | 230° |
| 2026-05-04 23:38 | 36.11176 | -81.45900 | 37976 ft | 415 kts | 230° |
| 2026-05-04 23:38 | 36.07103 | -81.50953 | 37968 ft | 415 kts | 230° |
| 2026-05-04 23:39 | 36.03022 | -81.56006 | 37961 ft | 415 kts | 230° |
| 2026-05-04 23:39 | 35.98943 | -81.61049 | 37965 ft | 415 kts | 230° |
| 2026-05-04 23:40 | 35.94860 | -81.66089 | 37975 ft | 414 kts | 230° |
| 2026-05-04 23:40 | 35.90779 | -81.71118 | 37985 ft | 414 kts | 230° |
| 2026-05-04 23:41 | 35.86712 | -81.76123 | 37988 ft | 414 kts | 230° |
| 2026-05-04 23:41 | 35.82629 | -81.81139 | 38039 ft | 414 kts | 230° |
| 2026-05-04 23:42 | 35.78547 | -81.86146 | 38027 ft | 414 kts | 230° |
| 2026-05-04 23:42 | 35.74415 | -81.91106 | 38011 ft | 414 kts | 230° |
| 2026-05-04 23:43 | 35.70278 | -81.96040 | 38000 ft | 414 kts | 230° |
| 2026-05-04 23:43 | 35.66148 | -82.00970 | 38006 ft | 413 kts | 230° |
| 2026-05-04 23:44 | 35.62050 | -82.05861 | 38007 ft | 413 kts | 230° |
| 2026-05-04 23:44 | 35.57922 | -82.10780 | 38008 ft | 413 kts | 230° |
| 2026-05-04 23:45 | 35.53797 | -82.15688 | 38009 ft | 413 kts | 230° |
| 2026-05-04 23:45 | 35.49665 | -82.20597 | 37972 ft | 412 kts | 230° |
| 2026-05-04 23:46 | 35.45553 | -82.25469 | 37983 ft | 411 kts | 229° |
| 2026-05-04 23:46 | 35.41443 | -82.30350 | 37984 ft | 411 kts | 230° |
| 2026-05-04 23:47 | 35.37424 | -82.35360 | 37993 ft | 412 kts | 231° |
| 2026-05-04 23:47 | 35.33412 | -82.40386 | 37988 ft | 413 kts | 231° |
| 2026-05-04 23:48 | 35.29390 | -82.45385 | 38005 ft | 414 kts | 231° |
| 2026-05-04 23:48 | 35.25339 | -82.50401 | 38025 ft | 413 kts | 231° |
| 2026-05-04 23:49 | 35.21293 | -82.55403 | 38023 ft | 414 kts | 231° |
| 2026-05-04 23:49 | 35.17238 | -82.60409 | 38025 ft | 414 kts | 230° |
| 2026-05-04 23:50 | 35.13172 | -82.65348 | 38014 ft | 415 kts | 229° |
| 2026-05-04 23:50 | 35.09012 | -82.70258 | 38021 ft | 415 kts | 229° |
| 2026-05-04 23:51 | 35.04863 | -82.75160 | 38019 ft | 413 kts | 230° |
| 2026-05-04 23:51 | 35.00735 | -82.80055 | 38013 ft | 417 kts | 230° |
| 2026-05-04 23:52 | 34.96573 | -82.84976 | 38021 ft | 415 kts | 230° |
| 2026-05-04 23:52 | 34.92410 | -82.89885 | 38020 ft | 416 kts | 229° |
| 2026-05-04 23:53 | 34.88216 | -82.94741 | 38015 ft | 416 kts | 229° |
| 2026-05-04 23:53 | 34.84008 | -82.99599 | 38022 ft | 417 kts | 229° |
| 2026-05-04 23:54 | 34.79797 | -83.04462 | 38025 ft | 417 kts | 229° |
| 2026-05-04 23:54 | 34.75618 | -83.09285 | 38019 ft | 417 kts | 229° |
| 2026-05-04 23:55 | 34.71403 | -83.14142 | 38043 ft | 418 kts | 229° |
| 2026-05-04 23:56 | 34.65066 | -83.21430 | 38047 ft | 419 kts | 229° |
| 2026-05-04 23:56 | 34.60833 | -83.26290 | 38055 ft | 419 kts | 229° |
| 2026-05-04 23:57 | 34.56590 | -83.31155 | 38057 ft | 420 kts | 229° |
| 2026-05-04 23:57 | 34.52355 | -83.36017 | 38050 ft | 419 kts | 229° |
| 2026-05-04 23:58 | 34.48121 | -83.40888 | 38045 ft | 420 kts | 229° |
| 2026-05-04 23:58 | 34.43878 | -83.45762 | 38025 ft | 420 kts | 229° |
| 2026-05-04 23:59 | 34.39627 | -83.50635 | 38019 ft | 420 kts | 229° |
| 2026-05-04 23:59 | 34.37509 | -83.53059 | 37691 ft | 418 kts | 229° |
| 2026-05-04 23:59 | 34.35391 | -83.55484 | 36922 ft | 422 kts | 229° |
| 2026-05-04 23:59 | 34.33270 | -83.57916 | 35953 ft | 428 kts | 227° |
| 2026-05-05 00:00 | 34.31089 | -83.60413 | 34968 ft | 434 kts | 227° |
| 2026-05-05 00:00 | 34.30347 | -83.61263 | 34652 ft | 435 kts | 227° |
| 2026-05-05 00:00 | 34.26662 | -83.65389 | 33234 ft | 435 kts | 225° |
| 2026-05-05 00:00 | 34.24380 | -83.67802 | 32383 ft | 435 kts | 224° |
| 2026-05-05 00:01 | 34.22096 | -83.70196 | 31529 ft | 435 kts | 224° |
| 2026-05-05 00:01 | 34.19810 | -83.72613 | 30554 ft | 438 kts | 225° |
| 2026-05-05 00:01 | 34.17522 | -83.75067 | 29438 ft | 442 kts | 226° |
| 2026-05-05 00:01 | 34.15233 | -83.77567 | 28294 ft | 444 kts | 226° |
| 2026-05-05 00:02 | 34.12923 | -83.80055 | 27158 ft | 447 kts | 224° |
| 2026-05-05 00:02 | 34.10564 | -83.82530 | 25984 ft | 450 kts | 224° |
| 2026-05-05 00:02 | 34.08182 | -83.85018 | 24789 ft | 454 kts | 224° |
| 2026-05-05 00:02 | 34.05803 | -83.87539 | 23675 ft | 456 kts | 224° |
| 2026-05-05 00:03 | 34.03439 | -83.90066 | 22658 ft | 451 kts | 224° |
| 2026-05-05 00:03 | 34.01103 | -83.92568 | 21766 ft | 444 kts | 224° |
| 2026-05-05 00:03 | 33.98747 | -83.94947 | 20873 ft | 440 kts | 217° |
| 2026-05-05 00:03 | 33.96122 | -83.96718 | 20035 ft | 438 kts | 206° |
| 2026-05-05 00:04 | 33.93215 | -83.97793 | 19200 ft | 437 kts | 193° |
| 2026-05-05 00:04 | 33.90191 | -83.98089 | 18406 ft | 436 kts | 181° |
| 2026-05-05 00:04 | 33.87179 | -83.97642 | 17513 ft | 434 kts | 172° |
| 2026-05-05 00:04 | 33.84223 | -83.96987 | 16626 ft | 429 kts | 173° |
| 2026-05-05 00:05 | 33.81288 | -83.96479 | 15756 ft | 423 kts | 176° |
| 2026-05-05 00:05 | 33.78381 | -83.96188 | 14889 ft | 418 kts | 181° |
| 2026-05-05 00:05 | 33.75505 | -83.96444 | 14038 ft | 412 kts | 191° |
| 2026-05-05 00:05 | 33.72738 | -83.97266 | 13034 ft | 408 kts | 200° |
| 2026-05-05 00:06 | 33.70111 | -83.98533 | 11992 ft | 406 kts | 206° |
| 2026-05-05 00:06 | 33.67736 | -84.00303 | 11115 ft | 400 kts | 220° |
| 2026-05-05 00:06 | 33.65892 | -84.02750 | 10328 ft | 390 kts | 236° |
| 2026-05-05 00:06 | 33.65154 | -84.04639 | 9872 ft | 356 kts | 253° |
| 2026-05-05 00:07 | 33.64987 | -84.07275 | 8824 ft | 292 kts | 270° |
| 2026-05-05 00:07 | 33.65176 | -84.10236 | 7122 ft | 252 kts | 272° |
| 2026-05-05 00:07 | 33.65347 | -84.12294 | 5851 ft | 237 kts | 274° |
| 2026-05-05 00:07 | 33.65566 | -84.14245 | 4547 ft | 233 kts | 273° |
| 2026-05-05 00:08 | 33.65623 | -84.15478 | 4431 ft | 202 kts | 270° |
| 2026-05-05 00:08 | 33.65784 | -84.16978 | 4451 ft | 165 kts | 274° |
| 2026-05-05 00:08 | 33.65722 | -84.18238 | 4357 ft | 141 kts | 248° |
| 2026-05-05 00:08 | 33.65269 | -84.19199 | 4281 ft | 132 kts | 228° |
| 2026-05-05 00:09 | 33.64785 | -84.20134 | 4179 ft | 134 kts | 248° |
| 2026-05-05 00:09 | 33.64751 | -84.21263 | 4056 ft | 140 kts | 278° |
| 2026-05-05 00:09 | 33.64938 | -84.22386 | 3914 ft | 137 kts | 268° |
| 2026-05-05 00:09 | 33.64948 | -84.23519 | 3761 ft | 135 kts | 265° |
| 2026-05-05 00:10 | 33.64953 | -84.24644 | 3598 ft | 134 kts | 264° |
| 2026-05-05 00:10 | 33.64953 | -84.25765 | 3437 ft | 135 kts | 265° |
| 2026-05-05 00:10 | 33.64954 | -84.26888 | 3265 ft | 132 kts | 265° |
| 2026-05-05 00:10 | 33.64955 | -84.27988 | 3102 ft | 134 kts | 265° |
| 2026-05-05 00:11 | 33.64979 | -84.29098 | 2950 ft | 131 kts | 266° |
| 2026-05-05 00:11 | 33.65026 | -84.30208 | 2718 ft | 134 kts | 268° |
| 2026-05-05 00:11 | 33.65068 | -84.31305 | 2608 ft | 130 kts | 267° |
| 2026-05-05 00:11 | 33.65082 | -84.32401 | 2382 ft | 132 kts | 263° |
| 2026-05-05 00:12 | 33.65045 | -84.33477 | 2199 ft | 129 kts | 260° |
| 2026-05-05 00:12 | 33.65016 | -84.34581 | 2025 ft | 131 kts | 265° |
| 2026-05-05 00:12 | 33.65017 | -84.35660 | 1879 ft | 132 kts | 264° |
| 2026-05-05 00:12 | 33.64985 | -84.36753 | 1703 ft | 131 kts | 265° |
| 2026-05-05 00:13 | 33.64974 | -84.37829 | 1460 ft | 128 kts | 266° |
| 2026-05-05 00:13 | 33.64963 | -84.38936 | 1369 ft | 135 kts | 267° |
| 2026-05-05 00:13 | 33.64962 | -84.40047 | 1195 ft | 133 kts | 266° |
| 2026-05-05 00:13 | 33.64958 | -84.41155 | 1041 ft | 132 kts | 266° |
| 2026-05-05 00:14 | 33.64952 | -84.42141 | 1007 ft | 78 kts | 268° |
| 2026-05-05 00:14 | 33.64954 | -84.42454 | 1006 ft | 24 kts | 267° |
| 2026-05-05 00:14 | 33.64931 | -84.42658 | 1007 ft | 25 kts | 251° |
| 2026-05-05 00:14 | 33.64859 | -84.42820 | 1006 ft | 9 kts | 238° |
| 2026-05-05 00:15 | 33.64806 | -84.42872 | 1006 ft | 8 kts | 197° |
| 2026-05-05 00:15 | 33.64781 | -84.42874 | 1006 ft | 0 kts | 181° |
| 2026-05-05 00:15 | 33.64776 | -84.42874 | 1006 ft | 0 kts | 181° |
| 2026-05-05 00:15 | 33.64774 | -84.42874 | 1006 ft | 0 kts | 181° |
| 2026-05-05 00:16 | 33.64771 | -84.42874 | 1006 ft | 2 kts | 181° |
| 2026-05-05 00:16 | 33.64760 | -84.42875 | 1006 ft | 3 kts | 181° |
| 2026-05-05 00:16 | 33.64752 | -84.42875 | 1007 ft | 0 kts | 181° |
| 2026-05-05 00:17 | 33.64751 | -84.42875 | 1007 ft | 1 kts | 181° |
| 2026-05-05 00:17 | 33.64735 | -84.42876 | 1007 ft | 3 kts | 181° |
| 2026-05-05 00:17 | 33.64703 | -84.42875 | 1007 ft | 6 kts | 176° |
| 2026-05-05 00:17 | 33.64655 | -84.42865 | 1007 ft | 8 kts | 163° |
| 2026-05-05 00:18 | 33.64593 | -84.42833 | 1006 ft | 12 kts | 168° |
| 2026-05-05 00:18 | 33.64543 | -84.42893 | 1006 ft | 12 kts | 258° |
| 2026-05-05 00:18 | 33.64544 | -84.43004 | 1006 ft | 15 kts | 271° |
| 2026-05-05 00:18 | 33.64541 | -84.43137 | 1007 ft | 17 kts | 270° |
| 2026-05-05 00:19 | 33.64541 | -84.43287 | 1007 ft | 19 kts | 272° |
| 2026-05-05 00:19 | 33.64541 | -84.43452 | 1006 ft | 21 kts | 269° |
| 2026-05-05 00:19 | 33.64540 | -84.43603 | 1006 ft | 17 kts | 270° |
| 2026-05-05 00:19 | 33.64492 | -84.43716 | 1006 ft | 17 kts | 193° |
| 2026-05-05 00:20 | 33.64370 | -84.43722 | 1006 ft | 19 kts | 180° |
| 2026-05-05 00:20 | 33.64235 | -84.43721 | 1006 ft | 20 kts | 179° |
| 2026-05-05 00:20 | 33.64092 | -84.43721 | 1006 ft | 21 kts | 181° |
| 2026-05-05 00:20 | 33.63959 | -84.43722 | 1006 ft | 19 kts | 180° |
| 2026-05-05 00:21 | 33.63874 | -84.43721 | 1006 ft | 8 kts | 179° |
| 2026-05-05 00:21 | 33.63847 | -84.43717 | 1006 ft | 4 kts | 161° |
| 2026-05-05 00:21 | 33.63833 | -84.43703 | 1006 ft | 0 kts | 128° |
| 2026-05-05 00:21 | 33.63834 | -84.43700 | 1006 ft | 1 kts | 109° |
| 2026-05-05 00:22 | 33.63834 | -84.43662 | 1006 ft | 2 kts | 89° |
| 2026-05-05 00:22 | 33.63834 | -84.43645 | 1006 ft | 0 kts | 89° |